Time;durP1;ratioP1;P1;durP2;ratioP2;P2;SDS_P1;SDS_P2;PMS_P1;PMS_P2;Temp;Humidity;BMP_temperature;BMP_pressure;BME280_temperature;BME280_humidity;BME280_pressure;Samples;Min_cycle;Max_cycle;Signal;HPM_P1;HPM_P2
2023/03/29 00:00:34;;;;;;;8.93;8.57;;;8.10;99.90;;;;;;5081734;28;20963;-75
2023/03/29 00:03:03;;;;;;;8.60;8.40;;;8.10;99.90;;;;;;5077549;28;20464;-77
2023/03/29 00:05:34;;;;;;;8.63;8.40;;;8.20;99.90;;;;;;5077206;28;21146;-74
2023/03/29 00:08:03;;;;;;;8.67;8.43;;;8.20;1.00;;;;;;5077728;28;20472;-78
2023/03/29 00:10:33;;;;;;;8.70;8.50;;;8.20;99.90;;;;;;5082413;28;20461;-77
2023/03/29 00:13:02;;;;;;;9.03;8.73;;;8.20;99.90;;;;;;5078210;28;20470;-79
2023/03/29 00:15:30;;;;;;;8.60;8.27;;;8.20;99.90;;;;;;5077204;28;20506;-80
2023/03/29 00:17:59;;;;;;;8.97;8.57;;;8.20;99.90;;;;;;5077983;28;20486;-80
2023/03/29 00:20:27;;;;;;;8.60;8.30;;;8.10;1.00;;;;;;5078467;28;20965;-78
2023/03/29 00:22:56;;;;;;;8.27;8.07;;;8.20;1.00;;;;;;5079503;28;20575;-79
2023/03/29 00:25:25;;;;;;;8.67;8.43;;;8.10;1.00;;;;;;5082746;28;20453;-78
2023/03/29 00:27:53;;;;;;;9.13;8.83;;;8.10;1.00;;;;;;5077097;28;20487;-78
2023/03/29 00:30:22;;;;;;;9.50;9.10;;;8.10;1.00;;;;;;5080049;28;20976;-78
2023/03/29 00:32:50;;;;;;;9.20;8.80;;;8.10;1.00;;;;;;5079982;28;20471;-79
2023/03/29 00:35:19;;;;;;;9.07;8.67;;;8.00;1.00;;;;;;5069266;28;21822;-79
2023/03/29 00:37:49;;;;;;;8.50;8.20;;;8.00;1.00;;;;;;5078771;28;20484;-78
2023/03/29 00:40:18;;;;;;;9.00;8.50;;;8.00;1.00;;;;;;5077244;28;20456;-78
2023/03/29 00:42:48;;;;;;;8.30;7.90;;;8.00;1.00;;;;;;5079389;28;20976;-76
2023/03/29 00:45:21;;;;;;;8.17;7.97;;;7.90;1.00;;;;;;5079833;28;20461;-76
2023/03/29 00:47:51;;;;;;;8.57;8.20;;;7.90;1.00;;;;;;5079306;28;20510;-78
2023/03/29 00:50:24;;;;;;;8.07;7.77;;;7.90;1.00;;;;;;5075406;28;20457;-79
2023/03/29 00:52:59;;;;;;;8.40;8.20;;;7.90;1.00;;;;;;5075829;28;21129;-75
2023/03/29 00:55:31;;;;;;;7.80;7.50;;;7.90;1.00;;;;;;5083649;28;21066;-79
2023/03/29 00:58:03;;;;;;;8.00;7.80;;;7.80;1.00;;;;;;5082639;28;20478;-80
2023/03/29 01:00:36;;;;;;;7.93;7.73;;;7.80;1.00;;;;;;5080292;28;20559;-78
2023/03/29 01:03:12;;;;;;;8.37;8.07;;;7.80;1.00;;;;;;5083069;28;20467;-79
2023/03/29 01:05:44;;;;;;;7.83;7.63;;;7.80;99.90;;;;;;5082371;28;20475;-80
2023/03/29 01:08:18;;;;;;;7.77;7.57;;;7.80;99.90;;;;;;5080819;28;20489;-78
2023/03/29 01:10:49;;;;;;;8.20;7.90;;;7.80;99.90;;;;;;5084454;28;20454;-79
2023/03/29 01:13:26;;;;;;;7.30;7.00;;;7.80;99.90;;;;;;5082762;28;20451;-78
2023/03/29 01:15:56;;;;;;;7.70;7.50;;;7.80;99.90;;;;;;5082572;28;22606;-78
2023/03/29 01:18:24;;;;;;;7.70;7.30;;;7.80;1.00;;;;;;5083165;28;20471;-75
2023/03/29 01:21:15;;;;;;;7.83;7.63;;;7.80;1.00;;;;;;5073890;28;20565;-75
2023/03/29 01:24:06;;;;;;;7.97;7.70;;;7.80;1.00;;;;;;5077449;28;20580;-77
2023/03/29 01:26:47;;;;;;;8.93;8.30;;;7.80;1.00;;;;;;5082509;28;20458;-75
2023/03/29 01:29:23;;;;;;;7.73;7.50;;;7.70;1.00;;;;;;5080782;28;20462;-77
2023/03/29 01:31:56;;;;;;;8.30;7.80;;;7.80;1.00;;;;;;5082428;28;20450;-77
2023/03/29 01:34:30;;;;;;;7.90;7.70;;;7.80;1.00;;;;;;5083445;28;20515;-78
2023/03/29 01:37:04;;;;;;;8.20;8.00;;;7.70;1.00;;;;;;5081505;28;20465;-77
2023/03/29 01:39:33;;;;;;;8.73;8.43;;;7.80;1.00;;;;;;5079067;28;20483;-79
2023/03/29 01:42:14;;;;;;;8.10;7.90;;;7.80;1.00;;;;;;5094920;27;20457;-79
2023/03/29 01:44:50;;;;;;;8.40;8.00;;;7.70;1.00;;;;;;5082706;28;20512;-78
2023/03/29 01:47:26;;;;;;;8.20;7.90;;;7.70;1.00;;;;;;5082987;28;20440;-78
2023/03/29 01:50:03;;;;;;;8.90;8.30;;;7.70;1.00;;;;;;5084037;28;20542;-76
2023/03/29 01:52:36;;;;;;;8.33;8.03;;;7.70;1.00;;;;;;5082631;28;20443;-76
2023/03/29 01:55:11;;;;;;;7.87;7.67;;;7.70;1.00;;;;;;5085349;28;20464;-78
2023/03/29 01:57:42;;;;;;;8.37;8.07;;;7.70;1.00;;;;;;5085812;28;20473;-77
2023/03/29 02:00:17;;;;;;;8.20;7.90;;;7.70;1.00;;;;;;5084246;28;20507;-77
2023/03/29 02:02:47;;;;;;;8.50;8.10;;;7.80;1.00;;;;;;5081259;28;20500;-79
2023/03/29 02:05:17;;;;;;;8.00;7.70;;;7.90;1.00;;;;;;5083807;28;20444;-80
2023/03/29 02:07:47;;;;;;;9.00;8.70;;;7.90;1.00;;;;;;5084164;28;20873;-78
2023/03/29 02:10:17;;;;;;;8.20;7.80;;;7.80;1.00;;;;;;5080384;28;20529;-78
2023/03/29 02:12:45;;;;;;;8.30;8.00;;;7.80;1.00;;;;;;5080979;28;20448;-78
2023/03/29 02:15:16;;;;;;;8.50;8.30;;;7.80;1.00;;;;;;5079826;28;20957;-78
2023/03/29 02:17:45;;;;;;;8.40;8.00;;;7.80;1.00;;;;;;5079518;28;20809;-78
2023/03/29 02:20:21;;;;;;;8.10;7.80;;;7.80;1.00;;;;;;5082616;28;20572;-79
2023/03/29 02:22:57;;;;;;;7.70;7.40;;;7.90;1.00;;;;;;5079786;28;20564;-78
2023/03/29 02:25:25;;;;;;;7.87;7.67;;;7.90;1.00;;;;;;5080275;28;20503;-75
2023/03/29 02:27:54;;;;;;;7.23;7.03;;;7.90;1.00;;;;;;5080267;28;20510;-77
2023/03/29 02:30:27;;;;;;;7.30;7.10;;;7.90;99.90;;;;;;5081064;28;20449;-79
2023/03/29 02:33:01;;;;;;;7.53;7.33;;;8.00;99.90;;;;;;5080292;28;20533;-79
2023/03/29 02:35:35;;;;;;;7.60;7.30;;;8.00;99.90;;;;;;5073941;28;20476;-77
2023/03/29 02:38:07;;;;;;;7.30;7.00;;;8.00;99.90;;;;;;5084171;28;20581;-76
2023/03/29 02:40:36;;;;;;;7.03;6.83;;;8.10;99.90;;;;;;5081001;28;20483;-80
2023/03/29 02:43:07;;;;;;;6.97;6.67;;;8.10;99.90;;;;;;5081392;28;21210;-75
2023/03/29 02:45:38;;;;;;;6.77;6.43;;;8.10;99.90;;;;;;5080088;28;20458;-77
2023/03/29 02:48:10;;;;;;;6.83;6.23;;;8.10;99.90;;;;;;5083252;28;20475;-77
2023/03/29 02:50:41;;;;;;;6.67;6.47;;;8.20;99.90;;;;;;5083156;28;20591;-75
2023/03/29 02:53:13;;;;;;;6.53;6.20;;;8.10;99.90;;;;;;5083379;28;20466;-76
2023/03/29 02:55:41;;;;;;;6.63;6.33;;;8.20;99.90;;;;;;5083549;28;20460;-76
2023/03/29 02:58:09;;;;;;;5.80;5.60;;;8.30;99.90;;;;;;5083262;28;20645;-76
2023/03/29 03:00:43;;;;;;;6.23;6.03;;;8.30;99.90;;;;;;5083672;28;20495;-76
2023/03/29 03:03:14;;;;;;;5.80;5.60;;;8.30;99.90;;;;;;5093046;27;20483;-78
2023/03/29 03:05:42;;;;;;;6.30;6.00;;;8.40;99.90;;;;;;5082729;28;20529;-80
2023/03/29 03:08:11;;;;;;;5.90;5.70;;;8.40;99.90;;;;;;5081030;28;20477;-75
2023/03/29 03:10:39;;;;;;;6.23;6.03;;;8.40;99.90;;;;;;5082934;28;20460;-77
2023/03/29 03:13:08;;;;;;;5.80;5.60;;;8.40;99.90;;;;;;5083083;28;20456;-79
2023/03/29 03:15:36;;;;;;;5.83;5.70;;;8.40;99.90;;;;;;5085293;28;20552;-79
2023/03/29 03:18:05;;;;;;;5.57;5.37;;;8.40;99.90;;;;;;5084752;28;20476;-78
2023/03/29 03:20:34;;;;;;;6.60;6.30;;;8.50;99.90;;;;;;5082917;28;20486;-79
2023/03/29 03:23:03;;;;;;;6.07;5.80;;;8.60;99.90;;;;;;5085887;28;20538;-79
2023/03/29 03:25:31;;;;;;;5.50;5.37;;;8.60;99.90;;;;;;5079161;28;20456;-78
2023/03/29 03:27:59;;;;;;;5.57;5.37;;;8.60;99.90;;;;;;5083963;28;20469;-75
2023/03/29 03:30:28;;;;;;;5.70;5.60;;;8.70;99.90;;;;;;5080679;28;20484;-77
2023/03/29 03:32:56;;;;;;;6.00;5.77;;;8.70;99.90;;;;;;5084390;28;20526;-77
2023/03/29 03:35:25;;;;;;;6.00;5.80;;;8.80;99.90;;;;;;5085267;28;20459;-78
2023/03/29 03:37:54;;;;;;;5.63;5.43;;;8.70;99.90;;;;;;5083220;28;21001;-77
2023/03/29 03:40:22;;;;;;;5.83;5.50;;;8.70;99.90;;;;;;5081192;28;20480;-78
2023/03/29 03:42:50;;;;;;;5.83;5.63;;;8.80;99.90;;;;;;5081270;28;20454;-78
2023/03/29 03:45:18;;;;;;;5.97;5.60;;;8.70;99.90;;;;;;5081984;28;20455;-77
2023/03/29 03:47:46;;;;;;;5.90;5.70;;;8.80;99.90;;;;;;5079111;28;20472;-77
2023/03/29 03:50:15;;;;;;;5.63;5.30;;;8.80;99.90;;;;;;5082976;28;20490;-77
2023/03/29 03:52:44;;;;;;;5.63;5.47;;;8.80;99.90;;;;;;5079963;28;20541;-79
2023/03/29 03:55:15;;;;;;;5.77;5.47;;;8.70;99.90;;;;;;5078924;28;20459;-77
2023/03/29 03:57:43;;;;;;;5.37;5.27;;;8.70;99.90;;;;;;5081669;28;20523;-79
2023/03/29 04:00:18;;;;;;;5.23;5.10;;;8.70;99.90;;;;;;5077383;28;20474;-76
2023/03/29 04:02:47;;;;;;;5.87;5.67;;;8.60;99.90;;;;;;5079570;28;20451;-78
2023/03/29 04:05:16;;;;;;;5.67;5.57;;;8.70;99.90;;;;;;5083668;28;20455;-78
2023/03/29 04:07:46;;;;;;;5.87;5.60;;;8.70;99.90;;;;;;5080856;28;20472;-78
2023/03/29 04:10:15;;;;;;;5.73;5.53;;;8.70;99.90;;;;;;5079392;28;20446;-76
2023/03/29 04:12:43;;;;;;;6.07;5.67;;;8.70;99.90;;;;;;5081502;28;20454;-80
2023/03/29 04:15:11;;;;;;;6.17;5.97;;;8.80;99.90;;;;;;5083021;28;20447;-80
2023/03/29 04:17:40;;;;;;;5.80;5.60;;;8.80;99.90;;;;;;5080635;28;20532;-79
2023/03/29 04:20:11;;;;;;;5.90;5.73;;;8.80;99.90;;;;;;5080925;28;20483;-74
2023/03/29 04:22:40;;;;;;;5.97;5.77;;;8.70;99.90;;;;;;5079987;28;20454;-77
2023/03/29 04:25:11;;;;;;;6.00;5.90;;;8.70;99.90;;;;;;5082400;28;20532;-77
2023/03/29 04:27:39;;;;;;;6.20;6.00;;;8.80;99.90;;;;;;5083976;28;20567;-80
2023/03/29 04:30:08;;;;;;;5.80;5.60;;;8.80;99.90;;;;;;5082279;28;20445;-79
2023/03/29 04:32:37;;;;;;;6.70;6.10;;;8.80;99.90;;;;;;5080414;28;20440;-78
2023/03/29 04:35:06;;;;;;;6.87;6.67;;;8.70;99.90;;;;;;5084099;28;21053;-77
2023/03/29 04:37:35;;;;;;;5.77;5.57;;;8.70;99.90;;;;;;5075449;28;20448;-79
2023/03/29 04:40:07;;;;;;;6.27;6.07;;;8.70;99.90;;;;;;5079982;28;20571;-77
2023/03/29 04:42:36;;;;;;;5.80;5.60;;;8.80;99.90;;;;;;5081443;28;20448;-76
2023/03/29 04:45:06;;;;;;;5.97;5.77;;;8.80;99.90;;;;;;5081361;28;20530;-78
2023/03/29 04:47:35;;;;;;;5.47;5.30;;;8.80;99.90;;;;;;5082716;28;21015;-76
2023/03/29 04:50:04;;;;;;;5.03;4.93;;;8.80;99.90;;;;;;5079192;28;21159;-75
2023/03/29 04:52:32;;;;;;;5.57;5.47;;;8.80;99.90;;;;;;5076865;28;20904;-79
2023/03/29 04:55:01;;;;;;;5.67;5.57;;;8.90;99.90;;;;;;5082368;28;20477;-78
2023/03/29 04:57:29;;;;;;;5.63;5.37;;;8.90;99.90;;;;;;5082059;28;21035;-78
2023/03/29 04:59:59;;;;;;;5.43;5.23;;;8.90;99.90;;;;;;5080457;28;20516;-77
2023/03/29 05:02:29;;;;;;;5.80;5.70;;;8.90;99.90;;;;;;5080991;28;21293;-78
2023/03/29 05:04:58;;;;;;;5.97;5.87;;;8.90;99.90;;;;;;5072951;28;20448;-74
2023/03/29 05:07:26;;;;;;;6.30;6.00;;;8.90;99.90;;;;;;5084952;28;20450;-77
2023/03/29 05:09:54;;;;;;;5.70;5.50;;;8.90;99.90;;;;;;5079663;28;20445;-78
2023/03/29 05:12:23;;;;;;;6.20;6.00;;;8.90;99.90;;;;;;5073720;28;20835;-79
2023/03/29 05:14:51;;;;;;;5.80;5.70;;;8.90;99.90;;;;;;5080228;28;20455;-78
2023/03/29 05:17:20;;;;;;;5.83;5.53;;;8.90;99.90;;;;;;5075502;28;20896;-77
2023/03/29 05:19:49;;;;;;;6.27;6.07;;;8.90;99.90;;;;;;5085205;28;20899;-79
2023/03/29 05:22:17;;;;;;;6.43;6.23;;;8.90;99.90;;;;;;5080622;28;20440;-79
2023/03/29 05:24:45;;;;;;;6.80;6.13;;;9.00;99.90;;;;;;5075281;28;20565;-81
2023/03/29 05:27:13;;;;;;;6.07;5.97;;;9.00;99.90;;;;;;5080008;28;20539;-79
2023/03/29 05:29:42;;;;;;;8.33;7.83;;;9.00;99.90;;;;;;5080722;28;20473;-80
2023/03/29 05:32:11;;;;;;;8.13;7.63;;;9.00;99.90;;;;;;5081418;28;20461;-79
2023/03/29 05:34:40;;;;;;;6.50;6.30;;;9.00;99.90;;;;;;5078487;28;21016;-79
2023/03/29 05:37:09;;;;;;;5.90;5.70;;;9.00;99.90;;;;;;5079720;28;20453;-76
2023/03/29 05:39:37;;;;;;;5.80;5.60;;;9.00;99.90;;;;;;5081026;28;20569;-77
2023/03/29 05:42:05;;;;;;;5.90;5.80;;;9.10;99.90;;;;;;5081638;28;20482;-78
2023/03/29 05:44:34;;;;;;;6.30;5.97;;;9.00;99.90;;;;;;5080813;28;20452;-80
2023/03/29 05:47:02;;;;;;;6.00;5.80;;;9.00;99.90;;;;;;5080116;28;20458;-79
2023/03/29 05:49:30;;;;;;;6.60;5.97;;;9.10;99.90;;;;;;5083332;28;20471;-79
2023/03/29 05:52:01;;;;;;;6.07;5.87;;;9.10;99.90;;;;;;5084186;28;20535;-79
2023/03/29 05:54:29;;;;;;;6.30;6.03;;;9.10;99.90;;;;;;5085033;28;20508;-77
2023/03/29 05:56:57;;;;;;;6.50;6.30;;;9.20;99.90;;;;;;5084288;28;20953;-76
2023/03/29 05:59:27;;;;;;;6.30;6.07;;;9.30;99.90;;;;;;5088754;28;20470;-77
2023/03/29 06:01:56;;;;;;;6.60;6.40;;;9.30;99.90;;;;;;5088798;28;21118;-77
2023/03/29 06:04:25;;;;;;;6.30;6.10;;;9.40;99.90;;;;;;5084205;28;20503;-79
2023/03/29 06:06:53;;;;;;;6.63;6.37;;;9.50;99.90;;;;;;5087142;28;20912;-76
2023/03/29 06:09:24;;;;;;;7.10;6.80;;;9.50;99.90;;;;;;5085467;28;20507;-78
2023/03/29 06:11:55;;;;;;;8.20;7.90;;;9.60;99.90;;;;;;5083659;28;21165;-80
2023/03/29 06:14:23;;;;;;;7.00;6.03;;;9.70;99.90;;;;;;5087080;28;20541;-78
2023/03/29 06:16:52;;;;;;;6.37;6.17;;;9.70;99.90;;;;;;5084998;28;22416;-79
2023/03/29 06:19:20;;;;;;;6.17;5.90;;;9.80;99.90;;;;;;5082182;28;20488;-80
2023/03/29 06:21:51;;;;;;;6.43;6.13;;;9.80;99.90;;;;;;5075677;28;20897;-77
2023/03/29 06:24:19;;;;;;;5.90;5.70;;;9.80;99.90;;;;;;5084335;28;21005;-79
2023/03/29 06:26:49;;;;;;;6.00;5.80;;;9.90;99.90;;;;;;5080697;28;20441;-80
2023/03/29 06:29:17;;;;;;;7.20;7.00;;;9.90;99.90;;;;;;5085895;28;20572;-79
2023/03/29 06:31:45;;;;;;;7.20;6.90;;;9.90;99.90;;;;;;5084829;28;20450;-81
2023/03/29 06:34:15;;;;;;;6.20;6.07;;;9.90;99.90;;;;;;5083595;28;20457;-79
2023/03/29 06:36:44;;;;;;;6.23;6.00;;;9.90;99.90;;;;;;5084034;28;20540;-74
2023/03/29 06:39:12;;;;;;;6.27;6.07;;;9.90;99.90;;;;;;5085913;28;20477;-79
2023/03/29 06:41:41;;;;;;;5.90;5.80;;;9.90;99.90;;;;;;5083246;28;20576;-78
2023/03/29 06:44:10;;;;;;;5.80;5.70;;;9.90;99.90;;;;;;5081616;28;20449;-79
2023/03/29 06:46:39;;;;;;;6.43;6.23;;;9.90;99.90;;;;;;5086806;28;20449;-81
2023/03/29 06:49:07;;;;;;;6.50;6.20;;;9.90;99.90;;;;;;5086634;28;20862;-78
2023/03/29 06:51:36;;;;;;;6.30;6.20;;;10.00;99.90;;;;;;5085869;28;20442;-80
2023/03/29 06:54:04;;;;;;;7.53;7.13;;;10.00;99.90;;;;;;5085487;28;20498;-75
2023/03/29 06:56:33;;;;;;;6.57;6.37;;;10.00;99.90;;;;;;5075190;28;20462;-81
2023/03/29 06:59:01;;;;;;;7.33;7.03;;;10.00;99.90;;;;;;5081255;28;20473;-75
2023/03/29 07:01:31;;;;;;;6.80;6.50;;;10.00;99.90;;;;;;5083965;28;20484;-77
2023/03/29 07:04:03;;;;;;;7.20;6.80;;;10.10;99.90;;;;;;5080949;28;20447;-79
2023/03/29 07:06:32;;;;;;;6.77;6.40;;;10.10;99.90;;;;;;5081820;28;21039;-78
2023/03/29 07:09:01;;;;;;;6.77;6.57;;;10.00;99.90;;;;;;5081655;28;20903;-81
2023/03/29 07:11:30;;;;;;;7.10;6.90;;;10.00;99.90;;;;;;5082512;28;20456;-79
2023/03/29 07:13:58;;;;;;;6.60;6.40;;;10.10;99.90;;;;;;5083607;28;20442;-78
2023/03/29 07:16:26;;;;;;;6.93;6.73;;;10.20;99.90;;;;;;5084927;28;20456;-79
2023/03/29 07:18:56;;;;;;;7.60;7.10;;;10.20;99.90;;;;;;5082531;28;21305;-79
2023/03/29 07:21:25;;;;;;;7.10;6.90;;;10.30;99.90;;;;;;5085705;28;20469;-78
2023/03/29 07:23:53;;;;;;;7.03;6.83;;;10.40;99.90;;;;;;5081095;28;20476;-79
2023/03/29 07:26:21;;;;;;;6.70;6.50;;;10.40;99.90;;;;;;5078973;28;20501;-79
2023/03/29 07:28:57;;;;;;;7.17;6.97;;;10.30;99.90;;;;;;5081751;28;20477;-76
2023/03/29 07:31:28;;;;;;;7.27;6.97;;;10.40;99.90;;;;;;5085740;28;21005;-78
2023/03/29 07:33:59;;;;;;;7.07;6.80;;;10.50;99.90;;;;;;5082902;28;20457;-78
2023/03/29 07:36:28;;;;;;;7.63;7.37;;;10.50;99.90;;;;;;5084921;28;20456;-81
2023/03/29 07:38:56;;;;;;;7.37;7.17;;;10.50;99.90;;;;;;5083448;28;20509;-78
2023/03/29 07:41:24;;;;;;;7.30;7.10;;;10.60;99.90;;;;;;5083405;28;20483;-79
2023/03/29 07:43:53;;;;;;;7.37;7.17;;;10.60;99.90;;;;;;5084622;28;20469;-78
2023/03/29 07:46:21;;;;;;;6.70;6.50;;;10.60;99.90;;;;;;5081409;28;20954;-78
2023/03/29 07:48:49;;;;;;;6.67;6.47;;;10.70;99.90;;;;;;5084403;28;21070;-76
2023/03/29 07:51:19;;;;;;;7.50;7.30;;;10.70;99.90;;;;;;5084753;28;20967;-79
2023/03/29 07:53:47;;;;;;;7.73;7.53;;;10.70;99.90;;;;;;5082937;28;20449;-76
2023/03/29 07:56:16;;;;;;;7.43;7.13;;;10.70;99.90;;;;;;5081848;28;20636;-78
2023/03/29 07:58:45;;;;;;;7.87;7.67;;;10.70;99.90;;;;;;5082191;28;20530;-80
2023/03/29 08:01:14;;;;;;;11.30;10.40;;;10.70;99.90;;;;;;5084668;28;20504;-81
2023/03/29 08:03:46;;;;;;;7.70;7.50;;;10.80;99.90;;;;;;5084424;28;20640;-77
2023/03/29 08:06:16;;;;;;;8.00;7.70;;;10.80;99.90;;;;;;5088090;28;20452;-79
2023/03/29 08:08:45;;;;;;;7.47;7.27;;;10.80;99.90;;;;;;5081476;28;20474;-78
2023/03/29 08:11:14;;;;;;;7.67;7.17;;;10.80;99.90;;;;;;5084436;28;20446;-78
2023/03/29 08:13:42;;;;;;;7.33;7.03;;;10.90;99.90;;;;;;5083632;28;20475;-78
2023/03/29 08:16:10;;;;;;;7.30;7.10;;;10.90;99.90;;;;;;5085658;28;20442;-79
2023/03/29 08:18:38;;;;;;;7.63;7.33;;;10.90;99.90;;;;;;5082242;28;20461;-75
2023/03/29 08:21:07;;;;;;;7.30;7.10;;;10.90;99.90;;;;;;5085374;28;20511;-80
2023/03/29 08:23:36;;;;;;;7.87;7.67;;;10.90;99.90;;;;;;5085069;28;20482;-79
2023/03/29 08:26:07;;;;;;;7.40;7.10;;;11.00;99.90;;;;;;5081085;28;20993;-79
2023/03/29 08:28:35;;;;;;;7.40;7.10;;;11.00;99.90;;;;;;5076635;28;20552;-83
2023/03/29 08:31:03;;;;;;;6.87;6.67;;;11.00;99.90;;;;;;5069939;28;20461;-78
2023/03/29 08:33:32;;;;;;;7.60;7.10;;;11.00;99.90;;;;;;5080867;28;20449;-79
2023/03/29 08:36:01;;;;;;;7.10;6.80;;;11.00;99.90;;;;;;5080486;28;20457;-79
2023/03/29 08:38:30;;;;;;;7.10;6.90;;;11.00;99.90;;;;;;5085175;28;20564;-77
2023/03/29 08:40:58;;;;;;;7.10;6.87;;;10.90;99.90;;;;;;5081744;28;20467;-79
2023/03/29 08:43:52;;;;;;;6.50;6.30;;;11.00;99.90;;;;;;5080809;28;20516;-79
2023/03/29 08:46:28;;;;;;;6.67;6.47;;;10.90;99.90;;;;;;5082708;28;20970;-81
2023/03/29 08:49:06;;;;;;;6.77;6.50;;;10.90;99.90;;;;;;5081381;28;20511;-77
2023/03/29 08:51:38;;;;;;;6.43;6.10;;;11.00;99.90;;;;;;5087180;28;20482;-79
2023/03/29 08:54:11;;;;;;;6.70;6.50;;;11.00;99.90;;;;;;5082664;28;20449;-81
2023/03/29 08:56:43;;;;;;;6.63;6.43;;;11.00;99.90;;;;;;5082991;28;20511;-79
2023/03/29 08:59:19;;;;;;;6.43;6.23;;;11.00;99.90;;;;;;5083835;28;20509;-78
2023/03/29 09:01:50;;;;;;;6.90;6.70;;;11.10;99.90;;;;;;5082919;28;20501;-78
2023/03/29 09:04:24;;;;;;;7.57;7.17;;;11.10;99.90;;;;;;5082931;28;20463;-79
2023/03/29 09:06:53;;;;;;;6.60;6.40;;;11.20;99.90;;;;;;5080289;28;20959;-78
2023/03/29 09:09:23;;;;;;;7.30;7.00;;;11.20;99.90;;;;;;5083275;28;20558;-77
2023/03/29 09:12:03;;;;;;;6.77;6.47;;;11.30;99.90;;;;;;5079970;28;20448;-80
2023/03/29 09:14:54;;;;;;;6.77;6.57;;;11.30;99.90;;;;;;5084764;28;20968;-77
2023/03/29 09:17:38;;;;;;;6.70;6.50;;;11.30;99.90;;;;;;5084855;28;20914;-79
2023/03/29 09:20:20;;;;;;;6.80;6.70;;;11.40;99.90;;;;;;5081528;28;20465;-80
2023/03/29 09:23:02;;;;;;;7.90;7.70;;;11.40;99.90;;;;;;5082701;28;20477;-78
2023/03/29 09:25:42;;;;;;;45.60;34.10;;;11.40;99.90;;;;;;5088633;28;20808;-78
2023/03/29 09:28:28;;;;;;;138.07;74.07;;;11.60;99.90;;;;;;5082131;28;20496;-79
2023/03/29 09:31:06;;;;;;;9.33;8.80;;;11.60;99.90;;;;;;5087872;28;20458;-76
2023/03/29 09:33:42;;;;;;;12.43;11.17;;;11.70;99.90;;;;;;5083644;28;20458;-79
2023/03/29 09:36:15;;;;;;;8.00;7.63;;;11.90;99.90;;;;;;5085444;28;20490;-79
2023/03/29 09:38:49;;;;;;;7.00;6.70;;;12.10;99.90;;;;;;5081394;28;20493;-74
2023/03/29 09:41:25;;;;;;;11.43;10.37;;;12.00;99.90;;;;;;5085938;28;20920;-76
2023/03/29 09:43:57;;;;;;;7.60;7.20;;;12.00;99.90;;;;;;5085758;28;20583;-76
2023/03/29 09:46:29;;;;;;;7.47;7.27;;;12.00;99.90;;;;;;5088507;28;20450;-73
2023/03/29 09:48:58;;;;;;;7.80;7.30;;;12.10;99.90;;;;;;5086071;28;20465;-76
2023/03/29 09:51:29;;;;;;;6.97;6.80;;;12.00;99.90;;;;;;5084331;28;21452;-77
2023/03/29 09:53:59;;;;;;;7.43;7.13;;;12.10;99.90;;;;;;5085893;28;20479;-77
2023/03/29 09:56:28;;;;;;;7.37;6.97;;;12.20;99.90;;;;;;5088976;28;20825;-75
2023/03/29 09:58:57;;;;;;;6.50;6.20;;;12.20;99.90;;;;;;5085336;28;20484;-74
2023/03/29 10:01:36;;;;;;;6.43;6.23;;;12.10;99.90;;;;;;5083474;28;20445;-79
2023/03/29 10:04:07;;;;;;;6.73;6.40;;;12.20;99.90;;;;;;5101619;28;21017;-81
2023/03/29 10:06:37;;;;;;;8.77;8.10;;;12.40;99.90;;;;;;5087341;28;20439;-76
2023/03/29 10:09:15;;;;;;;6.10;5.90;;;12.50;99.90;;;;;;5085046;28;20476;-77
2023/03/29 10:11:47;;;;;;;6.80;6.60;;;12.60;99.90;;;;;;5088003;28;20490;-78
2023/03/29 10:14:18;;;;;;;6.10;5.80;;;12.60;99.90;;;;;;5087800;28;20951;-75
2023/03/29 10:16:55;;;;;;;6.63;6.33;;;12.60;99.90;;;;;;5085883;28;20452;-80
2023/03/29 10:19:27;;;;;;;5.63;5.53;;;12.50;99.90;;;;;;5083657;28;20484;-76
2023/03/29 10:22:01;;;;;;;6.10;5.90;;;12.60;99.90;;;;;;5087563;28;20455;-76
2023/03/29 10:24:30;;;;;;;6.63;6.43;;;12.90;99.90;;;;;;5088049;28;21694;-79
2023/03/29 10:27:01;;;;;;;6.67;6.40;;;13.20;99.90;;;;;;5086468;28;20470;-78
2023/03/29 10:29:37;;;;;;;6.17;6.07;;;13.50;99.90;;;;;;5085203;28;20471;-77
2023/03/29 10:32:17;;;;;;;6.30;6.10;;;13.60;99.90;;;;;;5088604;28;20816;-79
2023/03/29 10:34:46;;;;;;;6.33;6.13;;;13.90;99.90;;;;;;5083369;28;20460;-78
2023/03/29 10:37:17;;;;;;;7.47;7.10;;;14.00;99.90;;;;;;5086804;28;20456;-78
2023/03/29 10:39:47;;;;;;;7.77;7.37;;;14.10;99.90;;;;;;5088190;28;20483;-81
2023/03/29 10:42:18;;;;;;;6.93;6.33;;;14.20;99.90;;;;;;5087997;28;20456;-80
2023/03/29 10:44:54;;;;;;;6.87;6.67;;;14.10;99.90;;;;;;5082097;28;20472;-82
2023/03/29 10:47:24;;;;;;;7.43;7.13;;;14.40;99.90;;;;;;5084685;28;20470;-79
2023/03/29 10:49:54;;;;;;;6.90;6.60;;;14.50;99.90;;;;;;5084219;28;20446;-78
2023/03/29 10:52:24;;;;;;;7.13;6.87;;;14.60;99.90;;;;;;5084362;28;20516;-78
2023/03/29 10:54:55;;;;;;;7.70;7.33;;;14.50;99.90;;;;;;5081464;28;20547;-81
2023/03/29 10:57:32;;;;;;;6.70;6.40;;;14.40;99.90;;;;;;5086697;28;20510;-76
2023/03/29 11:00:08;;;;;;;7.10;6.90;;;14.20;99.90;;;;;;5084993;28;20488;-78
2023/03/29 11:03:09;;;;;;;6.80;6.60;;;14.20;99.90;;;;;;5084863;28;20468;-77
2023/03/29 11:05:45;;;;;;;7.97;7.63;;;14.30;99.90;;;;;;5096868;28;20930;-79
2023/03/29 11:08:39;;;;;;;7.60;7.30;;;14.40;99.90;;;;;;5083273;28;20508;-78
2023/03/29 11:11:19;;;;;;;7.60;7.40;;;14.60;99.90;;;;;;5086518;28;20461;-80
2023/03/29 11:13:56;;;;;;;7.60;7.40;;;14.80;99.90;;;;;;5086851;28;20570;-78
2023/03/29 11:16:33;;;;;;;7.80;7.60;;;14.80;99.90;;;;;;5087259;28;20527;-79
2023/03/29 11:19:41;;;;;;;7.10;6.90;;;15.20;99.90;;;;;;5083894;28;20472;-79
2023/03/29 11:22:19;;;;;;;7.13;6.93;;;15.30;99.90;;;;;;5087281;28;20471;-79
2023/03/29 11:25:13;;;;;;;6.40;6.30;;;15.30;99.90;;;;;;5086666;28;21114;-81
2023/03/29 11:27:47;;;;;;;6.43;6.20;;;15.20;99.90;;;;;;5078484;28;20463;-78
2023/03/29 11:30:21;;;;;;;6.83;6.63;;;14.90;99.90;;;;;;5086636;28;20453;-78
2023/03/29 11:33:00;;;;;;;5.93;5.73;;;14.90;99.90;;;;;;5084079;28;20542;-79
2023/03/29 11:35:45;;;;;;;5.57;5.37;;;14.80;99.90;;;;;;5086166;28;21514;-79
2023/03/29 11:38:21;;;;;;;5.90;5.70;;;14.80;99.90;;;;;;5081732;28;21659;-77
2023/03/29 11:40:57;;;;;;;5.93;5.73;;;14.70;99.90;;;;;;5085766;28;20554;-77
2023/03/29 11:43:30;;;;;;;5.50;5.30;;;14.70;99.90;;;;;;5082050;28;20968;-77
2023/03/29 11:46:03;;;;;;;6.10;5.90;;;14.90;99.90;;;;;;5081861;28;20480;-80
2023/03/29 11:48:34;;;;;;;5.50;5.40;;;15.00;99.90;;;;;;5082045;28;20313;-76
2023/03/29 11:51:11;;;;;;;5.70;5.60;;;15.10;99.90;;;;;;5084178;28;20457;-80
2023/03/29 11:53:50;;;;;;;5.73;5.50;;;15.10;99.90;;;;;;5084671;28;20491;-77
2023/03/29 11:56:25;;;;;;;6.43;5.90;;;15.10;99.90;;;;;;5083408;28;20831;-80
2023/03/29 11:59:00;;;;;;;5.83;5.53;;;15.20;99.90;;;;;;5086418;28;20460;-78
2023/03/29 12:01:33;;;;;;;6.87;6.57;;;15.10;99.90;;;;;;5077441;28;21243;-79
2023/03/29 12:04:07;;;;;;;6.63;6.33;;;15.10;99.90;;;;;;5083805;28;20476;-80
2023/03/29 12:06:44;;;;;;;8.30;7.60;;;15.00;98.50;;;;;;5086053;28;20454;-79
2023/03/29 12:09:27;;;;;;;5.67;5.47;;;14.90;99.90;;;;;;5083159;28;20847;-78
2023/03/29 12:12:03;;;;;;;5.87;5.60;;;14.80;98.60;;;;;;5084255;28;20838;-79
2023/03/29 12:14:42;;;;;;;6.10;5.80;;;14.80;98.20;;;;;;5085752;28;20993;-81
2023/03/29 12:17:16;;;;;;;5.33;5.00;;;14.90;98.30;;;;;;5085845;28;20452;-77
2023/03/29 12:19:53;;;;;;;5.33;4.90;;;14.80;98.20;;;;;;5083312;28;21159;-78
2023/03/29 12:22:23;;;;;;;6.40;6.07;;;14.80;98.20;;;;;;5084998;28;20455;-79
2023/03/29 12:24:54;;;;;;;5.93;5.63;;;14.80;98.70;;;;;;5080232;28;20483;-77
2023/03/29 12:27:28;;;;;;;5.90;5.60;;;14.70;98.10;;;;;;5076141;28;21051;-79
2023/03/29 12:30:19;;;;;;;5.37;5.27;;;14.70;98.50;;;;;;5085171;28;20454;-78
2023/03/29 12:33:06;;;;;;;6.00;5.70;;;14.70;98.50;;;;;;5080975;28;20457;-77
2023/03/29 12:35:43;;;;;;;6.20;5.90;;;14.60;98.30;;;;;;5082046;28;20448;-79
2023/03/29 12:38:18;;;;;;;7.23;5.70;;;14.60;98.10;;;;;;5071778;28;20476;-78
2023/03/29 12:40:49;;;;;;;6.10;6.00;;;14.60;98.10;;;;;;5083055;28;20472;-79
2023/03/29 12:43:25;;;;;;;6.30;6.17;;;14.60;99.90;;;;;;5082476;28;20515;-77
2023/03/29 12:45:56;;;;;;;5.90;5.70;;;14.60;99.90;;;;;;5079231;28;20489;-79
2023/03/29 12:48:26;;;;;;;9.00;7.73;;;14.60;99.90;;;;;;5082431;28;20488;-78
2023/03/29 12:50:59;;;;;;;8.50;7.90;;;14.60;99.90;;;;;;5082310;28;20461;-79
2023/03/29 12:53:34;;;;;;;6.57;6.20;;;14.60;99.90;;;;;;5083494;28;20824;-79
2023/03/29 12:56:13;;;;;;;6.23;6.13;;;14.60;99.90;;;;;;5084902;28;20506;-78
2023/03/29 12:58:54;;;;;;;7.73;7.10;;;14.60;99.90;;;;;;5086593;28;20495;-81
2023/03/29 13:01:29;;;;;;;7.90;7.30;;;14.60;99.90;;;;;;5086125;28;20479;-80
2023/03/29 13:04:16;;;;;;;6.00;5.80;;;14.70;99.90;;;;;;5087428;28;20480;-78
2023/03/29 13:07:02;;;;;;;6.20;6.00;;;14.60;99.90;;;;;;5085218;28;20463;-79
2023/03/29 13:09:36;;;;;;;8.30;7.90;;;14.60;99.90;;;;;;5073380;28;20481;-76
2023/03/29 13:12:08;;;;;;;6.57;6.27;;;14.60;99.90;;;;;;5080576;28;20459;-79
2023/03/29 13:14:41;;;;;;;6.03;5.80;;;14.60;99.90;;;;;;5083381;28;20451;-78
2023/03/29 13:17:19;;;;;;;6.37;6.17;;;14.60;99.90;;;;;;5081823;28;20443;-77